Time;durP1;ratioP1;P1;durP2;ratioP2;P2;SDS_P1;SDS_P2;PMS_P1;PMS_P2;Temp;Humidity;BMP_temperature;BMP_pressure;BME280_temperature;BME280_humidity;BME280_pressure;Samples;Min_cycle;Max_cycle;Signal;HPM_P1;HPM_P2
2023/04/08 00:00:36;;;;;;;17.58;11.05;;;4.50;99.90;;;;;;5092560;28;20050;-67
2023/04/08 00:03:02;;;;;;;17.73;11.20;;;4.40;99.90;;;;;;5092798;28;20044;-67
2023/04/08 00:05:27;;;;;;;17.23;11.48;;;4.40;99.90;;;;;;5092902;28;20599;-66
2023/04/08 00:07:53;;;;;;;18.77;11.18;;;4.70;99.90;;;;;;5092127;28;20044;-66
2023/04/08 00:10:19;;;;;;;14.70;10.57;;;4.60;99.90;;;;;;5092725;28;20044;-66
2023/04/08 00:12:46;;;;;;;21.55;12.10;;;4.50;99.90;;;;;;5092263;28;20105;-66
2023/04/08 00:15:11;;;;;;;19.10;11.77;;;4.40;99.90;;;;;;5092231;28;20051;-66
2023/04/08 00:17:37;;;;;;;15.85;11.35;;;4.50;99.90;;;;;;5092929;28;20047;-66
2023/04/08 00:20:03;;;;;;;21.27;13.25;;;;;;;;;;5093046;28;20044;-66
2023/04/08 00:22:29;;;;;;;;;;;4.30;99.90;;;;;;5092786;28;20496;-66
2023/04/08 00:24:56;;;;;;;18.58;12.57;;;4.20;99.90;;;;;;5092841;28;19953;-66
2023/04/08 00:27:24;;;;;;;15.75;11.90;;;4.10;99.90;;;;;;5092958;28;20380;-66
2023/04/08 00:29:49;;;;;;;15.98;11.98;;;4.20;99.90;;;;;;5092709;28;20507;-66
2023/04/08 00:32:15;;;;;;;19.58;12.95;;;4.20;99.90;;;;;;5092680;28;20064;-68
2023/04/08 00:34:41;;;;;;;20.50;13.32;;;4.30;99.90;;;;;;5092702;28;20497;-67
2023/04/08 00:37:06;;;;;;;19.60;13.00;;;4.40;99.90;;;;;;5092368;28;20044;-66
2023/04/08 00:39:36;;;;;;;20.33;12.73;;;4.20;99.90;;;;;;5091369;28;20392;-66
2023/04/08 00:42:02;;;;;;;20.70;13.45;;;3.80;99.90;;;;;;5092635;28;20055;-66
2023/04/08 00:44:28;;;;;;;20.73;13.98;;;4.10;99.90;;;;;;5091318;28;20048;-66
2023/04/08 00:46:54;;;;;;;20.05;12.93;;;3.80;99.90;;;;;;5092577;28;20099;-66
2023/04/08 00:49:20;;;;;;;20.60;13.23;;;4.20;99.90;;;;;;5092472;28;20502;-65
2023/04/08 00:51:45;;;;;;;18.63;12.88;;;3.90;99.90;;;;;;5092135;28;20047;-68
2023/04/08 00:54:11;;;;;;;20.30;13.77;;;4.00;99.90;;;;;;5092269;28;20044;-66
2023/04/08 00:56:37;;;;;;;19.05;13.30;;;4.30;99.90;;;;;;5091082;28;20163;-68
2023/04/08 00:59:04;;;;;;;23.17;16.00;;;4.10;99.90;;;;;;5092316;28;20044;-66
2023/04/08 01:02:05;;;;;;;20.75;14.80;;;3.80;99.90;;;;;;5092277;28;20047;-66
2023/04/08 01:04:39;;;;;;;22.60;14.38;;;3.90;99.90;;;;;;5090622;28;20063;-66
2023/04/08 01:07:25;;;;;;;25.58;15.77;;;4.20;99.90;;;;;;5091948;28;20048;-66
2023/04/08 01:09:54;;;;;;;28.35;20.27;;;4.20;99.90;;;;;;5091977;28;20474;-67
2023/04/08 01:12:28;;;;;;;23.55;16.45;;;3.90;99.90;;;;;;5091928;28;20048;-66
2023/04/08 01:15:00;;;;;;;22.60;15.20;;;3.90;99.90;;;;;;5092035;28;20055;-66
2023/04/08 01:17:26;;;;;;;23.38;16.15;;;3.80;99.90;;;;;;5092049;28;20051;-66
2023/04/08 01:19:53;;;;;;;;;;;3.90;99.90;;;;;;5091959;28;20510;-67
2023/04/08 01:22:39;;;;;;;26.02;17.33;;;;;;;;;;5092069;28;19947;-67
2023/04/08 01:25:06;;;;;;;25.02;16.77;;;;;;;;;;5092088;28;20443;-66
2023/04/08 01:27:34;;;;;;;24.75;16.95;;;3.40;99.90;;;;;;5095695;28;20070;-66
2023/04/08 01:30:03;;;;;;;30.13;20.25;;;3.30;99.90;;;;;;5096081;28;20040;-66
2023/04/08 01:32:31;;;;;;;29.52;20.50;;;3.70;99.90;;;;;;5095793;28;20372;-69
2023/04/08 01:34:57;;;;;;;30.48;20.05;;;3.80;99.90;;;;;;5095763;28;20144;-67
2023/04/08 01:37:26;;;;;;;25.88;18.75;;;3.60;99.90;;;;;;5095945;28;20051;-66
2023/04/08 01:39:54;;;;;;;31.60;21.80;;;3.50;99.90;;;;;;5094914;28;20059;-66
2023/04/08 01:42:25;;;;;;;30.42;21.25;;;3.50;99.90;;;;;;5095873;28;20044;-68
2023/04/08 01:44:54;;;;;;;26.95;19.20;;;3.50;99.90;;;;;;5095882;28;20040;-67
2023/04/08 01:47:20;;;;;;;26.00;17.88;;;;;;;;;;5095862;28;20143;-69
2023/04/08 01:49:46;;;;;;;41.05;27.02;;;3.60;99.90;;;;;;5094283;28;20048;-67
2023/04/08 01:52:13;;;;;;;29.20;20.45;;;3.30;99.90;;;;;;5095751;28;20048;-67
2023/04/08 01:54:39;;;;;;;28.98;19.55;;;3.40;99.90;;;;;;5094554;28;20044;-66
2023/04/08 01:57:07;;;;;;;31.85;19.27;;;3.20;99.90;;;;;;5095581;28;20052;-66
2023/04/08 01:59:35;;;;;;;25.50;17.42;;;3.40;99.90;;;;;;5095554;28;20052;-66
2023/04/08 02:02:04;;;;;;;28.90;19.38;;;3.30;99.90;;;;;;5095473;28;20086;-66
2023/04/08 02:04:30;;;;;;;30.83;18.15;;;3.10;99.90;;;;;;5095097;28;20051;-66
2023/04/08 02:06:56;;;;;;;32.88;19.88;;;;;;;;;;5095448;28;20043;-66
2023/04/08 02:09:21;;;;;;;32.92;22.25;;;3.40;99.90;;;;;;5095578;28;20044;-68
2023/04/08 02:11:47;;;;;;;31.63;19.00;;;;;;;;;;5095327;28;20388;-66
2023/04/08 02:14:13;;;;;;;34.65;21.70;;;2.70;99.90;;;;;;5095344;28;20122;-66
2023/04/08 02:16:41;;;;;;;41.28;26.35;;;;;;;;;;5094907;28;20131;-66
2023/04/08 02:19:23;;;;;;;42.00;28.58;;;3.20;99.90;;;;;;5094954;28;20056;-69
2023/04/08 02:21:54;;;;;;;50.55;32.83;;;;;;;;;;5095478;28;20381;-66
2023/04/08 02:24:21;;;;;;;46.78;30.92;;;3.40;99.90;;;;;;5095352;28;20555;-67
2023/04/08 02:26:52;;;;;;;37.53;26.17;;;;;;;;;;5095090;28;20059;-70
2023/04/08 02:29:18;;;;;;;44.70;30.83;;;;;;;;;;5095134;28;20040;-67
2023/04/08 02:31:45;;;;;;;46.83;30.42;;;3.30;99.90;;;;;;5094946;28;20050;-66
2023/04/08 02:34:13;;;;;;;44.08;29.65;;;3.20;99.90;;;;;;5094790;28;20063;-66
2023/04/08 02:36:39;;;;;;;38.30;27.65;;;3.10;99.90;;;;;;5094712;28;20368;-66
2023/04/08 02:39:06;;;;;;;34.45;24.95;;;3.10;99.90;;;;;;5094861;28;20044;-66
2023/04/08 02:41:31;;;;;;;37.28;22.40;;;3.10;99.90;;;;;;5094760;28;20527;-66
2023/04/08 02:43:57;;;;;;;36.78;23.52;;;2.90;99.90;;;;;;5094742;28;20158;-67
2023/04/08 02:46:23;;;;;;;35.10;21.48;;;3.10;99.90;;;;;;5094620;28;20055;-70
2023/04/08 02:48:49;;;;;;;37.47;22.60;;;2.80;99.90;;;;;;5094437;28;20482;-67
2023/04/08 02:51:15;;;;;;;;;;;3.30;99.90;;;;;;5093765;28;20040;-66
2023/04/08 02:53:41;;;;;;;35.15;21.25;;;3.00;99.90;;;;;;5094610;28;19942;-66
2023/04/08 02:56:09;;;;;;;35.28;22.13;;;3.20;99.90;;;;;;5094500;28;20147;-66
2023/04/08 02:58:35;;;;;;;34.15;20.60;;;;;;;;;;5094378;28;20052;-66
2023/04/08 03:01:01;;;;;;;41.08;22.65;;;3.20;99.90;;;;;;5094086;28;20493;-66
2023/04/08 03:03:28;;;;;;;34.53;22.58;;;3.00;99.90;;;;;;5094080;28;20058;-68
2023/04/08 03:05:57;;;;;;;37.85;22.65;;;3.10;99.90;;;;;;5094307;28;20048;-66
2023/04/08 03:08:23;;;;;;;34.75;22.83;;;;;;;;;;5094237;28;20054;-66
2023/04/08 03:10:49;;;;;;;40.50;23.02;;;;;;;;;;5094203;28;20081;-66
2023/04/08 03:13:15;;;;;;;36.38;22.42;;;3.00;99.90;;;;;;5094201;28;20056;-67
2023/04/08 03:15:41;;;;;;;37.22;22.98;;;3.00;99.90;;;;;;5094194;28;20147;-66
2023/04/08 03:18:07;;;;;;;36.25;23.00;;;3.10;99.90;;;;;;5093789;28;20094;-66
2023/04/08 03:20:33;;;;;;;35.63;21.60;;;;;;;;;;5093987;28;20044;-66
2023/04/08 03:22:59;;;;;;;39.75;23.15;;;3.20;99.90;;;;;;5092902;28;20464;-66
2023/04/08 03:25:25;;;;;;;37.75;22.65;;;;;;;;;;5093951;28;20131;-66
2023/04/08 03:27:51;;;;;;;34.63;22.77;;;2.90;99.90;;;;;;5093850;28;20044;-66
2023/04/08 03:30:17;;;;;;;37.53;22.55;;;2.90;99.90;;;;;;5093508;28;20070;-67
2023/04/08 03:32:42;;;;;;;34.42;22.25;;;2.90;99.90;;;;;;5093511;28;20064;-68
2023/04/08 03:35:08;;;;;;;40.42;23.80;;;3.00;99.90;;;;;;5093844;28;20048;-67
2023/04/08 03:37:34;;;;;;;37.75;23.30;;;2.90;99.90;;;;;;5093775;28;20127;-66
2023/04/08 03:40:00;;;;;;;38.45;22.95;;;3.00;99.90;;;;;;5092399;28;20048;-66
2023/04/08 03:42:27;;;;;;;41.85;23.27;;;3.00;99.90;;;;;;5093634;28;20048;-66
2023/04/08 03:44:54;;;;;;;39.83;25.65;;;;;;;;;;5093281;28;20109;-67
2023/04/08 03:47:19;;;;;;;38.85;24.85;;;3.10;99.90;;;;;;5092262;28;20048;-66
2023/04/08 03:49:45;;;;;;;41.97;25.90;;;;;;;;;;5092846;28;20043;-66
2023/04/08 03:52:11;;;;;;;42.72;25.35;;;2.80;99.90;;;;;;5093324;28;20044;-66
2023/04/08 03:54:37;;;;;;;40.33;23.92;;;3.00;99.90;;;;;;5093361;28;20089;-68
2023/04/08 03:57:03;;;;;;;38.92;24.25;;;2.80;99.90;;;;;;5093370;28;20051;-68
2023/04/08 03:59:29;;;;;;;42.10;25.00;;;;;;;;;;5093110;28;20083;-66
2023/04/08 04:01:55;;;;;;;45.08;26.35;;;2.70;99.90;;;;;;5093284;28;20044;-66
2023/04/08 04:04:21;;;;;;;41.70;25.23;;;2.80;99.90;;;;;;5093238;28;20044;-66
2023/04/08 04:06:47;;;;;;;42.47;25.40;;;;;;;;;;5075207;28;20385;-66
2023/04/08 04:09:14;;;;;;;39.45;24.50;;;2.70;99.90;;;;;;5093029;28;20098;-68
2023/04/08 04:11:39;;;;;;;46.42;25.67;;;2.70;99.90;;;;;;5093020;28;20051;-67
2023/04/08 04:14:05;;;;;;;44.97;26.23;;;2.80;99.90;;;;;;5093066;28;20392;-67
2023/04/08 04:16:31;;;;;;;40.78;24.95;;;2.70;99.90;;;;;;5093204;28;20043;-66
2023/04/08 04:18:56;;;;;;;43.47;25.13;;;2.70;99.90;;;;;;5093291;28;20048;-67
2023/04/08 04:21:22;;;;;;;45.37;25.10;;;2.90;99.90;;;;;;5093097;28;20500;-67
2023/04/08 04:23:48;;;;;;;44.37;26.57;;;2.80;99.90;;;;;;5092880;28;20298;-67
2023/04/08 04:26:14;;;;;;;46.22;26.85;;;2.90;99.90;;;;;;5092830;28;20774;-69
2023/04/08 04:28:40;;;;;;;52.75;27.45;;;3.20;99.90;;;;;;5092456;28;20144;-67
2023/04/08 04:31:06;;;;;;;46.30;27.13;;;2.80;99.90;;;;;;5092999;28;20047;-67
2023/04/08 04:33:32;;;;;;;48.30;27.90;;;;;;;;;;5098324;28;20060;-67
2023/04/08 04:35:58;;;;;;;48.50;27.73;;;;;;;;;;5092676;28;20095;-66
2023/04/08 04:38:24;;;;;;;47.13;26.63;;;;;;;;;;5092589;28;20051;-67
2023/04/08 04:40:50;;;;;;;52.22;28.52;;;3.00;99.90;;;;;;5092677;28;20503;-67
2023/04/08 04:43:19;;;;;;;50.55;28.40;;;;;;;;;;5091318;28;20075;-66
2023/04/08 04:45:45;;;;;;;53.17;28.90;;;2.90;99.90;;;;;;5092453;28;20071;-68
2023/04/08 04:48:10;;;;;;;51.72;27.67;;;3.10;99.90;;;;;;5092440;28;20039;-67
2023/04/08 04:50:36;;;;;;;47.33;26.77;;;3.10;99.90;;;;;;5092381;28;20044;-67
2023/04/08 04:53:02;;;;;;;50.03;28.38;;;2.90;99.90;;;;;;5092336;28;20040;-67
2023/04/08 04:55:27;;;;;;;46.85;28.27;;;3.00;99.90;;;;;;5092361;28;20109;-67
2023/04/08 04:57:53;;;;;;;58.67;29.53;;;3.00;99.90;;;;;;5092278;28;20537;-67
2023/04/08 05:00:19;;;;;;;53.93;28.13;;;;;;;;;;5091566;28;20623;-67
2023/04/08 05:02:45;;;;;;;53.17;27.13;;;;;;;;;;5092251;28;20331;-67
2023/04/08 05:05:11;;;;;;;46.35;26.55;;;2.90;99.90;;;;;;5092292;28;20135;-67
2023/04/08 05:07:38;;;;;;;44.97;26.80;;;2.90;99.90;;;;;;5092182;28;20134;-67
2023/04/08 05:10:04;;;;;;;47.30;25.83;;;2.60;99.90;;;;;;5092117;28;20047;-67
2023/04/08 05:12:30;;;;;;;47.53;26.25;;;;;;;;;;5091815;28;20472;-67
2023/04/08 05:14:59;;;;;;;48.00;26.50;;;2.80;99.90;;;;;;5091838;28;20500;-69
2023/04/08 05:17:25;;;;;;;53.95;28.80;;;2.90;99.90;;;;;;5092126;28;20059;-67
2023/04/08 05:19:52;;;;;;;57.85;29.27;;;2.80;99.90;;;;;;5092165;28;20048;-67
2023/04/08 05:22:18;;;;;;;50.60;28.20;;;2.90;99.90;;;;;;5092157;28;20056;-67
2023/04/08 05:24:44;;;;;;;47.35;27.10;;;;;;;;;;5090921;28;20138;-67
2023/04/08 05:27:10;;;;;;;46.40;27.27;;;;;;;;;;5091832;28;20074;-67
2023/04/08 05:29:36;;;;;;;54.28;27.95;;;3.10;99.90;;;;;;5091997;28;20051;-67
2023/04/08 05:32:01;;;;;;;53.25;29.02;;;2.70;99.90;;;;;;5091601;28;20040;-67
2023/04/08 05:34:31;;;;;;;51.85;27.80;;;2.50;99.90;;;;;;5091680;28;20144;-67
2023/04/08 05:36:56;;;;;;;54.50;28.48;;;2.90;99.90;;;;;;5091879;28;20073;-67
2023/04/08 05:39:22;;;;;;;50.45;28.55;;;2.80;99.90;;;;;;5091865;28;20040;-66
2023/04/08 05:41:48;;;;;;;51.30;27.38;;;;;;;;;;5091921;28;20488;-69
2023/04/08 05:44:14;;;;;;;51.60;27.70;;;;;;;;;;5090950;28;20055;-67
2023/04/08 05:46:40;;;;;;;53.38;26.20;;;3.00;99.90;;;;;;5091941;28;20055;-68
2023/04/08 05:49:05;;;;;;;52.08;28.52;;;3.00;99.90;;;;;;5092130;28;20055;-67
2023/04/08 05:51:31;;;;;;;53.35;28.13;;;3.20;99.90;;;;;;5091317;28;20070;-67
2023/04/08 05:53:57;;;;;;;53.30;29.10;;;;;;;;;;5091941;28;20115;-67
2023/04/08 05:56:23;;;;;;;51.60;27.55;;;3.40;99.90;;;;;;5082249;28;20135;-67
2023/04/08 05:58:49;;;;;;;50.25;26.42;;;;;;;;;;5088202;28;20158;-69
2023/04/08 06:01:15;;;;;;;51.28;26.85;;;3.50;99.90;;;;;;5091485;28;20044;-67
2023/04/08 06:03:41;;;;;;;53.70;26.50;;;;;;;;;;5090937;28;20047;-67
2023/04/08 06:06:10;;;;;;;51.50;27.67;;;3.80;99.90;;;;;;5091473;28;20048;-67
2023/04/08 06:08:36;;;;;;;45.45;26.17;;;3.80;99.90;;;;;;5091068;28;20044;-67
2023/04/08 06:11:04;;;;;;;47.40;26.88;;;3.70;99.90;;;;;;5090546;28;20498;-67
2023/04/08 06:13:30;;;;;;;46.55;26.05;;;3.70;99.90;;;;;;5094779;28;20102;-70
2023/04/08 06:15:56;;;;;;;42.83;23.77;;;4.10;99.90;;;;;;5095227;28;20044;-67
2023/04/08 06:18:21;;;;;;;44.65;24.30;;;3.80;99.90;;;;;;5094604;28;20040;-69
2023/04/08 06:20:47;;;;;;;44.55;24.85;;;4.00;99.90;;;;;;5094922;28;20048;-68
2023/04/08 06:23:13;;;;;;;51.67;25.48;;;4.30;99.90;;;;;;5094698;28;20050;-68
2023/04/08 06:25:39;;;;;;;41.63;23.92;;;3.90;99.90;;;;;;5093672;28;20097;-68
2023/04/08 06:28:04;;;;;;;48.70;24.05;;;3.80;99.90;;;;;;5094949;28;20044;-67
2023/04/08 06:30:30;;;;;;;44.00;23.48;;;4.50;99.90;;;;;;5094693;28;20118;-69
2023/04/08 06:32:56;;;;;;;44.50;24.45;;;4.00;99.90;;;;;;5094326;28;20503;-70
2023/04/08 06:35:21;;;;;;;42.20;23.15;;;4.10;99.90;;;;;;5094634;28;20055;-69
2023/04/08 06:37:47;;;;;;;40.95;23.30;;;;;;;;;;5094714;28;20071;-69
2023/04/08 06:40:13;;;;;;;38.80;21.73;;;4.40;99.90;;;;;;5093554;28;20044;-68
2023/04/08 06:42:41;;;;;;;35.80;20.63;;;4.40;99.90;;;;;;5094554;28;20044;-69
2023/04/08 06:45:08;;;;;;;37.28;21.10;;;4.50;99.90;;;;;;5094531;28;20043;-68
2023/04/08 06:47:33;;;;;;;41.13;21.83;;;4.80;99.90;;;;;;5094077;28;20088;-68
2023/04/08 06:49:59;;;;;;;36.30;21.85;;;;;;;;;;5094525;28;20156;-68
2023/04/08 06:52:26;;;;;;;38.58;21.05;;;5.10;99.90;;;;;;5094521;28;20452;-71
2023/04/08 06:54:51;;;;;;;33.05;20.40;;;5.00;99.90;;;;;;5093250;28;20075;-69
2023/04/08 06:57:17;;;;;;;32.05;19.08;;;5.40;99.90;;;;;;5094383;28;20048;-71
2023/04/08 06:59:43;;;;;;;36.80;21.10;;;5.10;99.90;;;;;;5094027;28;20398;-68
2023/04/08 07:02:08;;;;;;;34.22;20.23;;;5.60;99.90;;;;;;5094045;28;20050;-68
2023/04/08 07:04:34;;;;;;;35.55;20.48;;;5.80;99.90;;;;;;5093436;28;20434;-69
2023/04/08 07:07:00;;;;;;;32.00;19.27;;;6.10;99.90;;;;;;5093654;28;20119;-68
2023/04/08 07:09:25;;;;;;;30.25;19.08;;;6.30;99.90;;;;;;5091339;28;20076;-69
2023/04/08 07:11:51;;;;;;;29.48;18.48;;;6.10;99.90;;;;;;5094060;28;20046;-70
2023/04/08 07:14:17;;;;;;;30.23;18.45;;;6.60;99.90;;;;;;5092864;28;20101;-69
2023/04/08 07:16:43;;;;;;;29.42;18.33;;;6.20;99.90;;;;;;5093481;28;20087;-70
2023/04/08 07:19:09;;;;;;;25.52;16.85;;;6.30;99.90;;;;;;5093629;28;20071;-68
2023/04/08 07:21:35;;;;;;;27.08;17.55;;;6.30;99.90;;;;;;5092840;28;20048;-68
2023/04/08 07:24:01;;;;;;;28.98;17.10;;;6.40;99.90;;;;;;5091628;28;20536;-69
2023/04/08 07:26:27;;;;;;;30.23;17.88;;;6.70;99.90;;;;;;5093741;28;20048;-71
2023/04/08 07:28:53;;;;;;;;;;;6.60;99.90;;;;;;5094358;28;20372;-68
2023/04/08 07:31:18;;;;;;;24.95;16.63;;;6.60;99.90;;;;;;5093096;28;19928;-68
2023/04/08 07:33:45;;;;;;;26.52;17.27;;;6.80;99.90;;;;;;5090845;28;20051;-71
2023/04/08 07:36:12;;;;;;;26.13;16.70;;;6.60;99.90;;;;;;5092060;28;20102;-70
2023/04/08 07:38:38;;;;;;;25.02;15.73;;;6.70;99.90;;;;;;5093160;28;20055;-68
2023/04/08 07:41:04;;;;;;;27.73;16.35;;;6.70;99.90;;;;;;5093604;28;20040;-68
2023/04/08 07:43:31;;;;;;;27.80;15.15;;;6.70;99.90;;;;;;5093690;28;20044;-69
2023/04/08 07:46:04;;;;;;;24.45;16.70;;;6.80;99.90;;;;;;5093614;28;20352;-68
2023/04/08 07:48:32;;;;;;;27.40;15.93;;;6.60;99.90;;;;;;5093182;28;20548;-70
2023/04/08 07:51:01;;;;;;;24.40;16.40;;;7.00;99.90;;;;;;5093461;28;20158;-68
2023/04/08 07:53:27;;;;;;;26.17;16.65;;;6.80;99.90;;;;;;5092888;28;20086;-69
2023/04/08 07:55:52;;;;;;;29.90;16.95;;;6.70;99.90;;;;;;5075458;28;20083;-68
2023/04/08 07:58:18;;;;;;;23.73;16.77;;;6.80;99.90;;;;;;5092240;28;20052;-69
2023/04/08 08:00:44;;;;;;;25.20;16.35;;;7.00;99.90;;;;;;5093348;28;20036;-68
2023/04/08 08:03:09;;;;;;;27.48;16.48;;;6.80;99.90;;;;;;5092941;28;20051;-68
2023/04/08 08:05:38;;;;;;;27.30;17.63;;;6.90;99.90;;;;;;5093649;28;20816;-68
2023/04/08 08:08:06;;;;;;;28.42;17.17;;;7.00;99.90;;;;;;5092528;28;20040;-68
2023/04/08 08:10:32;;;;;;;27.13;17.30;;;6.80;99.90;;;;;;5093016;28;20394;-69
2023/04/08 08:12:58;;;;;;;27.00;17.40;;;6.60;99.90;;;;;;5092115;28;20047;-69
2023/04/08 08:15:24;;;;;;;27.38;16.83;;;7.30;99.90;;;;;;5092769;28;20044;-68
2023/04/08 08:17:49;;;;;;;28.70;18.02;;;7.00;99.90;;;;;;5093070;28;20040;-68
2023/04/08 08:20:15;;;;;;;27.38;18.00;;;6.80;99.90;;;;;;5092559;28;20044;-72
2023/04/08 08:22:41;;;;;;;25.67;16.48;;;6.70;99.90;;;;;;5092560;28;20054;-72
2023/04/08 08:25:08;;;;;;;28.20;17.25;;;8.20;99.90;;;;;;5092924;28;20052;-68
2023/04/08 08:27:35;;;;;;;24.95;16.30;;;7.10;99.90;;;;;;5092845;28;20040;-69
2023/04/08 08:30:02;;;;;;;23.92;16.13;;;6.70;99.90;;;;;;5092711;28;20044;-68
2023/04/08 08:32:28;;;;;;;23.98;15.63;;;7.20;99.90;;;;;;5092747;28;20499;-69
2023/04/08 08:34:53;;;;;;;24.45;15.68;;;7.00;99.90;;;;;;5091941;28;20112;-68
2023/04/08 08:37:19;;;;;;;24.63;16.13;;;7.20;99.90;;;;;;5092712;28;20087;-68
2023/04/08 08:39:45;;;;;;;29.08;16.60;;;8.00;99.90;;;;;;5092652;28;20173;-68
2023/04/08 08:42:23;;;;;;;26.45;16.60;;;7.20;99.90;;;;;;5092620;28;20101;-68
2023/04/08 08:44:50;;;;;;;25.58;15.93;;;7.20;99.90;;;;;;5092681;28;20050;-69
2023/04/08 08:47:16;;;;;;;;;;;7.30;99.90;;;;;;5092987;28;20044;-68
2023/04/08 08:49:42;;;;;;;24.95;15.65;;;7.00;99.90;;;;;;5092173;28;19976;-72
2023/04/08 08:52:08;;;;;;;24.20;16.08;;;7.70;99.90;;;;;;5091101;28;20112;-70
2023/04/08 08:54:34;;;;;;;26.52;16.55;;;7.60;99.90;;;;;;5092008;28;20052;-70
2023/04/08 08:57:00;;;;;;;24.40;15.82;;;8.30;99.90;;;;;;5092636;28;20050;-68
2023/04/08 08:59:26;;;;;;;24.63;15.98;;;8.50;99.90;;;;;;5092363;28;20116;-68
2023/04/08 09:01:52;;;;;;;25.83;15.55;;;7.40;99.90;;;;;;5092349;28;20366;-69
2023/04/08 09:04:21;;;;;;;26.40;16.30;;;7.40;99.90;;;;;;5091873;28;20125;-69
2023/04/08 09:06:49;;;;;;;23.17;14.63;;;7.60;99.90;;;;;;5092402;28;20067;-69
2023/04/08 09:09:16;;;;;;;22.02;14.55;;;7.70;99.90;;;;;;5092330;28;20044;-69
2023/04/08 09:11:44;;;;;;;23.63;15.13;;;7.50;99.90;;;;;;5091885;28;20545;-69
2023/04/08 09:14:24;;;;;;;22.88;14.57;;;8.00;99.90;;;;;;5092185;28;20056;-68
2023/04/08 09:16:50;;;;;;;22.60;13.20;;;7.50;99.90;;;;;;5092254;28;20044;-68
2023/04/08 09:19:16;;;;;;;20.50;13.48;;;8.40;99.90;;;;;;5091605;28;20488;-68
2023/04/08 09:21:42;;;;;;;21.92;14.43;;;7.40;99.90;;;;;;5092111;28;20160;-69
2023/04/08 09:24:10;;;;;;;21.15;13.75;;;7.80;99.90;;;;;;5092137;28;20087;-66
2023/04/08 09:26:36;;;;;;;21.05;13.60;;;7.70;99.90;;;;;;5084804;28;20048;-68
2023/04/08 09:29:06;;;;;;;24.67;14.55;;;7.40;99.90;;;;;;5091787;28;20124;-71
2023/04/08 09:31:41;;;;;;;23.65;14.95;;;7.90;99.90;;;;;;5091749;28;20048;-69
2023/04/08 09:34:12;;;;;;;24.42;14.77;;;7.90;99.90;;;;;;5091422;28;20048;-69
2023/04/08 09:36:38;;;;;;;23.95;14.55;;;8.10;99.90;;;;;;5090500;28;20052;-69
2023/04/08 09:39:05;;;;;;;23.00;14.38;;;8.40;99.90;;;;;;5090299;28;20368;-68
2023/04/08 09:41:34;;;;;;;25.65;14.85;;;8.30;99.90;;;;;;5091441;28;20404;-68
2023/04/08 09:44:03;;;;;;;24.67;14.90;;;8.30;99.90;;;;;;5091606;28;20127;-68
2023/04/08 09:46:35;;;;;;;21.10;14.02;;;8.30;99.90;;;;;;5091379;28;20376;-70
2023/04/08 09:49:14;;;;;;;21.98;14.68;;;7.90;99.90;;;;;;5095629;28;20048;-68
2023/04/08 09:51:56;;;;;;;24.52;15.52;;;7.70;99.90;;;;;;5095595;28;20047;-69
2023/04/08 09:54:43;;;;;;;23.35;15.18;;;8.60;99.90;;;;;;5095604;28;20192;-73
2023/04/08 09:57:12;;;;;;;22.87;15.33;;;8.70;99.90;;;;;;5095536;28;20048;-70
2023/04/08 09:59:47;;;;;;;23.25;14.25;;;8.80;99.90;;;;;;5095505;28;20048;-69
2023/04/08 10:02:15;;;;;;;22.67;13.88;;;8.40;99.90;;;;;;5095187;28;20044;-69
2023/04/08 10:04:44;;;;;;;22.30;15.07;;;8.50;99.90;;;;;;5095081;28;20044;-70
2023/04/08 10:07:10;;;;;;;24.58;14.52;;;8.70;99.90;;;;;;5095439;28;20048;-70
2023/04/08 10:09:37;;;;;;;20.27;13.88;;;8.90;99.90;;;;;;5095229;28;20476;-69
2023/04/08 10:12:03;;;;;;;19.80;12.77;;;8.60;99.90;;;;;;5094984;28;20051;-71
2023/04/08 10:14:29;;;;;;;;;;;9.20;99.90;;;;;;5095341;28;20101;-70
2023/04/08 10:17:24;;;;;;;23.38;14.25;;;8.80;99.90;;;;;;5094835;28;20360;-67
2023/04/08 10:19:49;;;;;;;24.58;15.07;;;8.90;99.90;;;;;;5095099;28;20050;-68
2023/04/08 10:22:27;;;;;;;26.55;15.43;;;9.10;99.90;;;;;;5095122;28;20123;-66
2023/04/08 10:25:18;;;;;;;28.23;16.20;;;9.20;99.90;;;;;;5094588;28;20048;-70
2023/04/08 10:27:45;;;;;;;27.88;16.85;;;9.10;99.90;;;;;;5094852;28;20117;-68
2023/04/08 10:30:40;;;;;;;32.22;16.98;;;9.40;99.90;;;;;;5094818;28;20044;-68
2023/04/08 10:33:18;;;;;;;31.10;18.08;;;9.10;99.90;;;;;;5078114;28;20066;-72
2023/04/08 10:35:49;;;;;;;34.45;18.38;;;9.00;99.90;;;;;;5093399;28;20060;-69
2023/04/08 10:38:16;;;;;;;47.85;23.33;;;9.20;99.90;;;;;;5085369;28;20036;-68
2023/04/08 10:40:43;;;;;;;51.85;25.75;;;9.10;99.90;;;;;;5094685;28;20048;-69
2023/04/08 10:43:10;;;;;;;48.05;24.50;;;9.00;99.90;;;;;;5093451;28;20059;-69
2023/04/08 10:45:37;;;;;;;48.03;24.98;;;9.10;99.90;;;;;;5093962;28;20051;-68
2023/04/08 10:48:21;;;;;;;43.22;26.13;;;9.30;99.90;;;;;;5093274;28;20051;-68
2023/04/08 10:50:55;;;;;;;49.08;24.60;;;8.90;99.90;;;;;;5094459;28;20053;-67
2023/04/08 10:53:29;;;;;;;50.50;25.73;;;8.90;99.90;;;;;;5091733;28;20119;-68
2023/04/08 10:56:11;;;;;;;42.40;24.90;;;8.90;99.90;;;;;;5093716;28;20048;-68
2023/04/08 10:58:51;;;;;;;43.50;23.50;;;8.90;99.90;;;;;;5094912;28;20044;-67
2023/04/08 11:01:17;;;;;;;38.78;22.45;;;8.90;99.90;;;;;;5094507;28;20051;-68
2023/04/08 11:03:43;;;;;;;;;;;9.00;99.90;;;;;;5094903;28;20059;-70
2023/04/08 11:06:09;;;;;;;44.88;22.50;;;8.90;99.90;;;;;;5093383;28;20297;-67
2023/04/08 11:08:36;;;;;;;40.35;22.70;;;8.70;99.90;;;;;;5094836;28;20040;-67
2023/04/08 11:11:03;;;;;;;38.92;21.98;;;8.70;99.90;;;;;;5094559;28;20048;-67
2023/04/08 11:13:29;;;;;;;39.55;22.08;;;8.70;99.90;;;;;;5094621;28;20059;-70
2023/04/08 11:15:57;;;;;;;39.60;21.85;;;8.70;99.90;;;;;;5094389;28;20472;-67
2023/04/08 11:18:23;;;;;;;37.22;20.58;;;8.60;99.90;;;;;;5094573;28;20442;-68
2023/04/08 11:20:50;;;;;;;37.55;19.90;;;8.60;99.90;;;;;;5094493;28;20048;-67
2023/04/08 11:23:17;;;;;;;37.25;19.58;;;8.80;99.90;;;;;;5094496;28;20047;-67
2023/04/08 11:25:44;;;;;;;37.40;19.98;;;8.80;99.90;;;;;;5094105;28;20079;-68
2023/04/08 11:28:11;;;;;;;39.00;19.17;;;8.90;99.90;;;;;;5094224;28;20051;-67
2023/04/08 11:30:39;;;;;;;41.65;20.52;;;8.60;99.90;;;;;;5094016;28;20040;-67
2023/04/08 11:33:06;;;;;;;34.08;19.40;;;9.10;99.90;;;;;;5094078;28;20090;-68
2023/04/08 11:35:32;;;;;;;37.00;18.52;;;8.90;99.90;;;;;;5093564;28;20060;-67
2023/04/08 11:37:58;;;;;;;34.45;18.80;;;9.20;99.90;;;;;;5093904;28;20092;-71
2023/04/08 11:40:25;;;;;;;31.48;17.58;;;9.60;99.90;;;;;;5078082;28;20075;-68
2023/04/08 11:42:51;;;;;;;30.65;18.48;;;9.10;99.90;;;;;;5073147;28;20052;-67
2023/04/08 11:45:20;;;;;;;29.73;17.27;;;9.20;99.90;;;;;;5071875;28;20048;-67
2023/04/08 11:47:47;;;;;;;31.45;18.02;;;9.00;99.90;;;;;;5073083;28;20048;-67
2023/04/08 11:50:25;;;;;;;32.42;18.88;;;9.30;99.90;;;;;;5072875;28;20040;-67
2023/04/08 11:52:52;;;;;;;27.73;16.70;;;9.30;99.90;;;;;;5073421;28;20543;-67
2023/04/08 11:55:29;;;;;;;30.10;17.35;;;9.30;99.90;;;;;;5072963;28;20088;-67
2023/04/08 11:57:56;;;;;;;26.65;16.38;;;9.40;99.90;;;;;;5072541;28;20063;-67
2023/04/08 12:00:23;;;;;;;29.63;17.10;;;9.30;99.90;;;;;;5105521;28;20048;-67
2023/04/08 12:02:50;;;;;;;28.92;16.00;;;9.50;99.90;;;;;;5072883;28;20044;-67
2023/04/08 12:05:16;;;;;;;27.70;17.48;;;9.70;99.90;;;;;;5072525;28;20045;-67
2023/04/08 12:07:42;;;;;;;;;;;9.30;99.90;;;;;;5073094;28;20123;-67
2023/04/08 12:10:09;;;;;;;27.80;15.80;;;10.30;99.90;;;;;;5072103;28;20158;-67
2023/04/08 12:12:35;;;;;;;27.52;15.82;;;9.50;99.90;;;;;;5072515;28;20044;-69
2023/04/08 12:15:01;;;;;;;26.80;16.08;;;9.30;99.90;;;;;;5072465;28;20048;-67
2023/04/08 12:17:27;;;;;;;25.23;14.82;;;9.50;99.90;;;;;;5072482;28;20048;-67
2023/04/08 12:19:52;;;;;;;25.25;15.43;;;9.90;99.90;;;;;;5072586;28;20049;-67
2023/04/08 12:22:18;;;;;;;23.55;13.88;;;9.60;99.90;;;;;;5072390;28;20094;-67
2023/04/08 12:24:44;;;;;;;20.13;12.80;;;9.50;99.90;;;;;;5072368;28;20055;-67
2023/04/08 12:27:10;;;;;;;22.83;12.80;;;9.90;99.90;;;;;;5072022;28;20040;-68
2023/04/08 12:29:35;;;;;;;21.08;13.20;;;9.90;99.90;;;;;;5072236;28;20056;-73
2023/04/08 12:32:01;;;;;;;20.10;12.73;;;9.90;99.90;;;;;;5087699;28;20525;-70
2023/04/08 12:34:27;;;;;;;18.60;12.27;;;9.60;99.90;;;;;;5072180;28;20048;-68
2023/04/08 12:36:54;;;;;;;;;;;9.50;99.90;;;;;;5072655;28;20409;-67
2023/04/08 12:39:20;;;;;;;17.80;12.10;;;9.50;99.90;;;;;;5072314;28;20011;-67
2023/04/08 12:41:45;;;;;;;18.17;11.25;;;9.70;99.90;;;;;;5071783;28;20455;-67
2023/04/08 12:44:11;;;;;;;17.10;11.43;;;10.00;99.90;;;;;;5072118;28;20056;-67
2023/04/08 12:46:37;;;;;;;15.25;10.95;;;10.20;99.90;;;;;;5071857;28;20396;-69
2023/04/08 12:49:02;;;;;;;15.57;10.70;;;10.40;99.90;;;;;;5071839;28;20083;-67
2023/04/08 12:51:28;;;;;;;14.40;10.32;;;10.30;99.90;;;;;;5072086;28;20055;-67